LFRV 221500Z AUTO 25009KT 230V300 2900 BR OVC005 10/09 Q1030

ElémentsDécodage
LFRV Station météo située sur l'aérodrome de VANNES Meucon
221500Z émis le 22 du mois à 15h00 UTC
AUTO Bulletin édité par un automate
25009KT vent du 250°, 09 noeuds
230V300 vent de direction variable entre 230° et 300°
2900 visibilité horizontale de 2900 mètres
BR brume
OVC005 couverture nuageuse totale (8/8) à 500 pieds
10/09 température 10°C, point de rosée 09°C
 soit une humidité relative de 94%
Q1030 la pression au niveau de la mer (QNH) est de 1030 hPa